createdAt,value
2022-10-31T00:01:22.219Z,14.52
2022-10-31T00:03:50.514Z,13.61
2022-10-31T00:06:21.439Z,13.84
2022-10-31T00:08:54.378Z,13.75
2022-10-31T00:11:22.929Z,14.08
2022-10-31T00:13:51.073Z,13.88
2022-10-31T00:16:24.261Z,14.11
2022-10-31T00:18:54.015Z,13.67
2022-10-31T00:21:22.957Z,13.77
2022-10-31T00:23:50.967Z,13.78
2022-10-31T00:26:19.350Z,14.07
2022-10-31T00:28:47.566Z,13.64
2022-10-31T00:31:15.824Z,14.34
2022-10-31T00:33:45.618Z,13.55
2022-10-31T00:36:16.220Z,13.89
2022-10-31T00:38:45.422Z,14.11
2022-10-31T00:41:15.418Z,13.73
2022-10-31T00:43:44.111Z,13.59
2022-10-31T00:46:13.505Z,13.49
2022-10-31T00:48:43.255Z,12.96
2022-10-31T00:51:11.359Z,13.36
2022-10-31T00:53:40.769Z,13.51
2022-10-31T00:56:09.016Z,13.71
2022-10-31T00:58:37.276Z,13.58
2022-10-31T01:01:06.547Z,13.55
2022-10-31T01:03:36.378Z,13.49
2022-10-31T01:06:07.349Z,13.76
2022-10-31T01:08:36.606Z,13.60
2022-10-31T01:11:18.093Z,13.62
2022-10-31T01:13:46.997Z,13.74
2022-10-31T01:16:19.527Z,13.99
2022-10-31T01:18:48.127Z,13.64
2022-10-31T01:21:18.989Z,13.99
2022-10-31T01:23:50.760Z,14.60
2022-10-31T01:26:21.726Z,14.49
2022-10-31T01:28:52.520Z,14.38
2022-10-31T01:31:22.096Z,14.15
2022-10-31T01:33:50.746Z,13.77
2022-10-31T01:36:34.747Z,13.84
2022-10-31T01:39:07.756Z,13.64
2022-10-31T01:41:38.910Z,12.96
2022-10-31T01:44:17.478Z,13.79
2022-10-31T01:47:11.559Z,13.99
2022-10-31T01:49:44.980Z,13.65
2022-10-31T01:52:26.868Z,13.74
2022-10-31T01:55:03.220Z,13.29
2022-10-31T01:57:32.627Z,13.62
2022-10-31T02:00:07.949Z,13.37
2022-10-31T02:02:42.051Z,13.60
2022-10-31T02:05:22.262Z,14.38
2022-10-31T02:08:14.986Z,13.97
2022-10-31T02:10:44.527Z,14.12
2022-10-31T02:13:14.235Z,13.68
2022-10-31T02:15:45.659Z,13.13
2022-10-31T02:18:13.956Z,13.13
2022-10-31T02:20:49.557Z,13.22
2022-10-31T02:23:47.815Z,13.55
2022-10-31T02:26:38.665Z,13.07
2022-10-31T02:29:16.003Z,13.46
2022-10-31T02:31:55.038Z,13.37
2022-10-31T02:34:42.947Z,12.92
2022-10-31T02:37:29.429Z,13.25
2022-10-31T02:40:00.269Z,13.69
2022-10-31T02:42:44.915Z,14.03
2022-10-31T02:45:21.546Z,14.03
2022-10-31T02:47:50.637Z,13.80
2022-10-31T02:50:29.877Z,14.13
2022-10-31T02:52:57.846Z,13.37
2022-10-31T02:55:26.211Z,13.56
2022-10-31T02:57:58.332Z,13.07
2022-10-31T03:00:28.477Z,13.53
2022-10-31T03:03:09.207Z,13.09
2022-10-31T03:05:56.025Z,12.50
2022-10-31T03:08:37.017Z,13.34
2022-10-31T03:11:07.028Z,13.13
2022-10-31T03:13:50.107Z,13.98
2022-10-31T03:16:32.007Z,13.62
2022-10-31T03:19:12.768Z,13.14
2022-10-31T03:21:45.254Z,13.54
2022-10-31T03:24:14.207Z,13.45
2022-10-31T03:26:46.118Z,14.40
2022-10-31T03:29:17.638Z,13.91
2022-10-31T03:32:13.967Z,12.96
2022-10-31T03:34:43.273Z,12.92
2022-10-31T03:37:13.487Z,12.80
2022-10-31T03:39:44.607Z,13.15
2022-10-31T03:42:17.376Z,12.80
2022-10-31T03:44:50.140Z,13.02
2022-10-31T03:47:19.295Z,13.18
2022-10-31T03:49:49.856Z,13.16
2022-10-31T03:52:31.237Z,13.06
2022-10-31T03:55:32.688Z,12.83
2022-10-31T03:58:05.484Z,13.20
2022-10-31T04:00:34.827Z,12.97
2022-10-31T04:03:10.507Z,13.25
2022-10-31T04:05:39.577Z,12.60
2022-10-31T04:08:13.358Z,13.13
2022-10-31T04:10:42.128Z,13.15
2022-10-31T04:13:14.162Z,13.36
2022-10-31T04:15:44.919Z,13.39
2022-10-31T04:18:13.376Z,13.69
2022-10-31T04:20:43.107Z,13.95
2022-10-31T04:23:19.907Z,13.64
2022-10-31T04:25:48.076Z,13.57
2022-10-31T04:28:15.964Z,13.14
2022-10-31T04:30:44.600Z,13.28
2022-10-31T04:33:13.040Z,12.84
2022-10-31T04:35:41.352Z,13.34
2022-10-31T04:38:09.618Z,13.48
2022-10-31T04:40:39.187Z,14.14
2022-10-31T04:43:08.647Z,13.61
2022-10-31T04:45:36.649Z,13.76
2022-10-31T04:48:05.211Z,13.39
2022-10-31T04:50:34.628Z,13.34
2022-10-31T04:53:02.957Z,12.56
2022-10-31T04:55:31.648Z,12.81
2022-10-31T04:58:00.944Z,12.82
2022-10-31T05:00:29.328Z,13.15
2022-10-31T05:02:58.903Z,12.57
2022-10-31T05:05:30.487Z,13.07
2022-10-31T05:07:59.370Z,13.28
2022-10-31T05:10:29.770Z,14.20
2022-10-31T05:13:02.303Z,13.52
2022-10-31T05:15:32.541Z,13.09
2022-10-31T05:18:04.680Z,13.11
2022-10-31T05:20:36.247Z,14.30
2022-10-31T05:23:04.787Z,13.95
2022-10-31T05:25:32.937Z,13.37
2022-10-31T05:28:03.214Z,13.46
2022-10-31T05:30:32.959Z,13.38
2022-10-31T05:33:02.044Z,13.78
2022-10-31T05:35:35.206Z,13.41
2022-10-31T05:38:04.533Z,13.76
2022-10-31T05:40:32.958Z,13.39
2022-10-31T05:43:01.602Z,14.05
2022-10-31T05:45:30.037Z,13.71
2022-10-31T05:48:00.687Z,13.53
2022-10-31T05:50:32.549Z,13.45
2022-10-31T05:53:06.008Z,14.37
2022-10-31T05:55:35.249Z,14.75
2022-10-31T05:58:04.058Z,13.29
2022-10-31T06:00:33.177Z,13.48
2022-10-31T06:05:41.712Z,13.73
2022-10-31T06:08:10.244Z,14.34
2022-10-31T06:10:39.196Z,14.57
2022-10-31T06:13:07.837Z,13.90
2022-10-31T06:15:36.217Z,13.61
2022-10-31T06:18:05.884Z,13.88
2022-10-31T06:20:34.983Z,14.55
2022-10-31T06:23:04.269Z,14.00
2022-10-31T06:25:34.110Z,13.84
2022-10-31T06:28:02.099Z,13.67
2022-10-31T06:30:30.666Z,13.81
2022-10-31T06:33:05.699Z,14.31
2022-10-31T06:35:35.556Z,13.64
2022-10-31T06:38:03.897Z,13.68
2022-10-31T06:40:32.205Z,13.38
2022-10-31T06:43:04.184Z,14.22
2022-10-31T06:45:32.377Z,13.97
2022-10-31T06:48:18.587Z,14.04
2022-10-31T06:50:53.661Z,13.40
2022-10-31T06:53:25.366Z,13.45
2022-10-31T06:55:53.257Z,13.84
2022-10-31T06:58:21.188Z,13.27
2022-10-31T07:00:49.995Z,13.70
2022-10-31T07:03:18.147Z,13.48
2022-10-31T07:05:46.216Z,13.93
2022-10-31T07:08:15.357Z,13.87
2022-10-31T07:10:44.577Z,13.45
2022-10-31T07:13:14.951Z,13.59
2022-10-31T07:15:44.977Z,13.23
2022-10-31T07:18:14.470Z,13.33
2022-10-31T07:20:42.413Z,13.92
2022-10-31T07:23:14.098Z,13.82
2022-10-31T07:25:43.109Z,13.55
2022-10-31T07:28:12.078Z,13.67
2022-10-31T07:30:40.418Z,13.59
2022-10-31T07:33:09.778Z,14.14
2022-10-31T07:35:39.703Z,13.90
2022-10-31T07:38:09.190Z,13.97
2022-10-31T07:40:37.478Z,14.00
2022-10-31T07:43:11.520Z,13.80
2022-10-31T07:45:43.889Z,13.74
2022-10-31T07:48:15.550Z,13.65
2022-10-31T07:51:02.109Z,13.84
2022-10-31T07:53:32.840Z,14.61
2022-10-31T07:56:00.871Z,13.82
2022-10-31T07:58:29.701Z,14.25
2022-10-31T08:00:59.705Z,13.38
2022-10-31T08:03:28.552Z,13.55
2022-10-31T08:05:59.115Z,14.09
2022-10-31T08:08:32.224Z,13.71
2022-10-31T08:11:03.292Z,13.68
2022-10-31T08:13:31.327Z,14.37
2022-10-31T08:16:04.866Z,13.83
2022-10-31T08:18:33.890Z,14.34
2022-10-31T08:21:01.808Z,14.17
2022-10-31T08:23:29.750Z,13.92
2022-10-31T08:25:58.787Z,14.16
2022-10-31T08:28:26.679Z,13.92
2022-10-31T08:30:55.148Z,14.48
2022-10-31T08:33:27.505Z,13.86
2022-10-31T08:35:59.588Z,13.86
2022-10-31T08:38:30.721Z,13.96
2022-10-31T08:40:58.657Z,13.83
2022-10-31T08:43:27.617Z,14.33
2022-10-31T08:45:56.281Z,14.62
2022-10-31T08:48:25.507Z,14.52
2022-10-31T08:50:59.059Z,14.08
2022-10-31T08:53:28.116Z,14.04
2022-10-31T08:55:57.778Z,14.35
2022-10-31T08:58:26.215Z,14.41
2022-10-31T09:00:57.548Z,14.42
2022-10-31T09:03:32.097Z,14.32
2022-10-31T09:06:04.083Z,14.19
2022-10-31T09:08:33.797Z,14.17
2022-10-31T09:11:02.699Z,14.45
2022-10-31T09:13:32.087Z,14.57
2022-10-31T09:16:01.257Z,14.04
2022-10-31T09:18:29.598Z,14.53
2022-10-31T09:20:59.720Z,14.59
2022-10-31T09:23:29.132Z,14.50
2022-10-31T09:26:00.963Z,14.55
2022-10-31T09:28:30.010Z,14.29
2022-10-31T09:31:00.172Z,14.35
2022-10-31T09:33:28.738Z,13.58
2022-10-31T09:35:59.818Z,13.42
2022-10-31T09:38:28.596Z,14.00
2022-10-31T09:41:05.777Z,14.40
2022-10-31T09:43:48.062Z,13.76
2022-10-31T09:46:30.030Z,13.88
2022-10-31T09:49:26.377Z,14.14
2022-10-31T09:52:20.077Z,14.06
2022-10-31T09:54:48.691Z,14.88
2022-10-31T09:57:18.988Z,13.89
2022-10-31T09:59:49.436Z,13.92
2022-10-31T10:02:30.796Z,14.36
2022-10-31T10:05:01.697Z,14.45
2022-10-31T10:07:34.109Z,14.60
2022-10-31T10:10:24.664Z,14.70
2022-10-31T10:13:14.468Z,14.51
2022-10-31T10:16:04.484Z,14.40
2022-10-31T10:18:50.218Z,14.60
2022-10-31T10:21:38.769Z,15.40
2022-10-31T10:24:23.499Z,14.37
2022-10-31T10:27:11.741Z,14.76
2022-10-31T10:29:49.080Z,14.09
2022-10-31T10:32:26.495Z,13.95
2022-10-31T10:35:10.487Z,14.33
2022-10-31T10:37:42.168Z,14.20
2022-10-31T10:40:18.310Z,14.10
2022-10-31T10:43:05.567Z,13.92
2022-10-31T10:45:51.857Z,14.39
2022-10-31T10:48:46.019Z,14.31
2022-10-31T10:51:38.940Z,13.70
2022-10-31T10:54:28.058Z,13.87
2022-10-31T10:56:58.977Z,14.18
2022-10-31T10:59:27.557Z,14.08
2022-10-31T11:01:55.497Z,14.64
2022-10-31T11:04:33.977Z,14.73
2022-10-31T11:07:08.238Z,14.21
2022-10-31T11:09:37.326Z,13.78
2022-10-31T11:12:11.976Z,14.51
2022-10-31T11:14:53.054Z,14.27
2022-10-31T11:17:41.048Z,14.84
2022-10-31T11:20:18.092Z,14.84
2022-10-31T11:22:48.872Z,14.53
2022-10-31T11:25:27.498Z,14.20
2022-10-31T11:28:10.557Z,14.38
2022-10-31T11:30:47.038Z,14.39
2022-10-31T11:33:40.297Z,14.36
2022-10-31T11:36:24.248Z,13.86
2022-10-31T11:38:53.418Z,14.03
2022-10-31T11:41:33.508Z,13.96
2022-10-31T11:44:11.801Z,14.22
2022-10-31T11:46:55.338Z,14.56
2022-10-31T11:49:29.286Z,14.15
2022-10-31T11:51:58.564Z,14.52
2022-10-31T11:54:30.318Z,14.17
2022-10-31T11:56:58.433Z,14.22
2022-10-31T11:59:29.698Z,13.98
2022-10-31T12:01:59.660Z,14.30
2022-10-31T12:04:40.913Z,13.87
2022-10-31T12:07:09.127Z,14.25
2022-10-31T12:09:38.825Z,14.22
2022-10-31T12:12:13.105Z,14.42
2022-10-31T12:14:51.956Z,13.87
2022-10-31T12:17:25.980Z,13.54
2022-10-31T12:20:12.748Z,14.35
2022-10-31T12:23:00.178Z,13.94
2022-10-31T12:25:57.598Z,13.58
2022-10-31T12:28:41.580Z,13.90
2022-10-31T12:31:23.777Z,14.35
2022-10-31T12:34:27.042Z,14.15
2022-10-31T12:37:31.658Z,14.33
2022-10-31T12:40:20.359Z,14.30
2022-10-31T12:43:15.878Z,13.90
2022-10-31T12:45:57.883Z,14.62
2022-10-31T12:48:40.287Z,15.07
2022-10-31T12:51:30.099Z,15.07
2022-10-31T12:54:14.246Z,13.88
2022-10-31T12:56:59.001Z,14.05
2022-10-31T12:59:41.967Z,14.36
2022-10-31T13:02:40.361Z,14.23
2022-10-31T13:05:18.039Z,14.37
2022-10-31T13:07:48.758Z,14.28
2022-10-31T13:10:31.098Z,13.75
2022-10-31T13:13:04.182Z,14.18
2022-10-31T13:15:40.456Z,14.34
2022-10-31T13:18:17.071Z,14.50
2022-10-31T13:20:51.651Z,14.59
2022-10-31T13:23:50.307Z,13.90
2022-10-31T13:26:50.571Z,13.27
2022-10-31T13:29:41.568Z,13.56
2022-10-31T13:32:10.357Z,14.39
2022-10-31T13:34:41.969Z,14.13
2022-10-31T13:37:38.170Z,14.16
2022-10-31T13:40:14.310Z,14.39
2022-10-31T13:43:01.424Z,14.60
2022-10-31T13:45:29.824Z,13.90
2022-10-31T13:48:16.677Z,14.38
2022-10-31T13:51:00.860Z,13.92
2022-10-31T13:53:43.967Z,13.62
2022-10-31T13:56:19.269Z,13.62
2022-10-31T13:59:14.325Z,13.80
2022-10-31T14:02:02.720Z,14.03
2022-10-31T14:04:50.431Z,14.02
2022-10-31T14:07:22.352Z,13.92
2022-10-31T14:10:07.231Z,13.84
2022-10-31T14:12:44.600Z,14.02
2022-10-31T14:15:22.818Z,13.93
2022-10-31T14:18:06.754Z,13.63
2022-10-31T14:20:36.399Z,14.38
2022-10-31T14:23:30.486Z,14.35
2022-10-31T14:26:19.343Z,14.26
2022-10-31T14:28:48.758Z,14.05
2022-10-31T14:31:39.492Z,13.77
2022-10-31T14:34:10.568Z,13.55
2022-10-31T14:36:38.830Z,14.34
2022-10-31T14:39:15.318Z,13.67
2022-10-31T14:41:59.668Z,13.98
2022-10-31T14:44:52.396Z,13.97
2022-10-31T14:47:46.430Z,13.52
2022-10-31T14:50:24.842Z,13.83
2022-10-31T14:52:56.189Z,13.82
2022-10-31T14:55:25.162Z,13.95
2022-10-31T14:58:06.845Z,14.59
2022-10-31T15:00:38.196Z,14.27
2022-10-31T15:03:13.956Z,13.82
2022-10-31T15:05:50.599Z,14.08
2022-10-31T15:08:39.818Z,13.91
2022-10-31T15:11:13.576Z,13.92
2022-10-31T15:14:03.449Z,13.61
2022-10-31T15:16:41.113Z,13.73
2022-10-31T15:19:12.310Z,13.34
2022-10-31T15:21:47.318Z,13.57
2022-10-31T15:24:17.143Z,13.84
2022-10-31T15:26:48.042Z,13.57
2022-10-31T15:29:28.181Z,13.55
2022-10-31T15:32:14.336Z,13.75
2022-10-31T15:34:45.497Z,13.87
2022-10-31T15:37:19.105Z,13.49
2022-10-31T15:39:48.488Z,13.89
2022-10-31T15:42:22.769Z,13.49
2022-10-31T15:45:16.713Z,14.00
2022-10-31T15:47:55.228Z,14.63
2022-10-31T15:50:34.235Z,13.52
2022-10-31T15:53:02.715Z,13.91
2022-10-31T15:55:34.942Z,13.63
2022-10-31T15:58:10.808Z,13.19
2022-10-31T16:00:39.912Z,13.32
2022-10-31T16:03:20.512Z,13.32
2022-10-31T16:05:53.972Z,13.69
2022-10-31T16:08:33.675Z,13.32
2022-10-31T16:11:07.720Z,13.96
2022-10-31T16:14:01.478Z,13.67
2022-10-31T16:16:35.142Z,13.82
2022-10-31T16:19:06.039Z,14.16
2022-10-31T16:21:38.856Z,14.11
2022-10-31T16:24:26.459Z,13.90
2022-10-31T16:26:56.497Z,13.65
2022-10-31T16:29:48.202Z,13.62
2022-10-31T16:32:29.538Z,14.74
2022-10-31T16:35:00.927Z,13.72
2022-10-31T16:37:28.999Z,13.81
2022-10-31T16:39:57.609Z,13.51
2022-10-31T16:42:25.965Z,13.62
2022-10-31T16:44:53.978Z,13.30
2022-10-31T16:47:25.967Z,13.75
2022-10-31T16:50:01.086Z,13.38
2022-10-31T16:52:38.129Z,13.25
2022-10-31T16:55:16.902Z,13.67
2022-10-31T16:57:48.999Z,13.84
2022-10-31T17:00:22.219Z,13.69
2022-10-31T17:02:52.602Z,13.91
2022-10-31T17:05:22.349Z,13.44
2022-10-31T17:07:52.121Z,13.70
2022-10-31T17:10:20.750Z,13.59
2022-10-31T17:12:49.998Z,13.69
2022-10-31T17:15:22.427Z,13.21
2022-10-31T17:17:52.829Z,13.51
2022-10-31T17:20:23.059Z,14.19
2022-10-31T17:22:51.449Z,13.80
2022-10-31T17:25:27.246Z,13.76
2022-10-31T17:27:55.458Z,13.63
2022-10-31T17:30:23.729Z,14.27
2022-10-31T17:32:52.313Z,13.64
2022-10-31T17:35:20.537Z,13.92
2022-10-31T17:37:48.966Z,13.78
2022-10-31T17:40:19.532Z,13.58
2022-10-31T17:42:56.090Z,13.88
2022-10-31T17:45:26.670Z,13.57
2022-10-31T17:47:55.029Z,13.76
2022-10-31T17:50:24.988Z,13.38
2022-10-31T17:52:53.468Z,13.70
2022-10-31T17:55:21.740Z,13.69
2022-10-31T17:57:49.667Z,13.69
2022-10-31T18:00:21.189Z,13.69
2022-10-31T18:02:49.509Z,13.91
2022-10-31T18:05:17.657Z,13.65
2022-10-31T18:07:45.846Z,13.98
2022-10-31T18:10:14.128Z,13.53
2022-10-31T18:12:42.157Z,13.80
2022-10-31T18:15:10.453Z,14.19
2022-10-31T18:17:42.022Z,14.43
2022-10-31T18:20:11.130Z,14.06
2022-10-31T18:22:39.476Z,13.77
2022-10-31T18:25:07.878Z,14.00
2022-10-31T18:27:35.887Z,14.17
2022-10-31T18:30:04.547Z,13.64
2022-10-31T18:32:32.526Z,13.48
2022-10-31T18:35:00.537Z,13.46
2022-10-31T18:37:28.938Z,13.40
2022-10-31T18:39:56.966Z,13.03
2022-10-31T18:42:25.061Z,13.38
2022-10-31T18:44:53.367Z,13.63
2022-10-31T18:47:21.978Z,13.02
2022-10-31T18:49:49.978Z,13.74
2022-10-31T18:52:18.251Z,13.65
2022-10-31T18:54:46.221Z,13.37
2022-10-31T18:57:14.238Z,13.02
2022-10-31T18:59:42.657Z,13.32
2022-10-31T19:02:15.196Z,13.44
2022-10-31T19:04:44.377Z,13.08
2022-10-31T19:07:12.423Z,13.21
2022-10-31T19:09:41.246Z,13.21
2022-10-31T19:12:10.084Z,13.22
2022-10-31T19:14:38.469Z,13.14
2022-10-31T19:17:06.368Z,13.28
2022-10-31T19:19:34.838Z,13.18
2022-10-31T19:22:02.890Z,13.02
2022-10-31T19:24:30.867Z,13.54
2022-10-31T19:27:00.859Z,13.58
2022-10-31T19:29:28.949Z,13.38
2022-10-31T19:31:58.128Z,13.42
2022-10-31T19:34:26.448Z,13.64
2022-10-31T19:36:54.458Z,12.97
2022-10-31T19:39:22.487Z,13.58
2022-10-31T19:41:50.867Z,13.49
2022-10-31T19:44:18.818Z,13.31
2022-10-31T19:46:52.961Z,13.21
2022-10-31T19:49:22.612Z,13.15
2022-10-31T19:51:51.248Z,13.11
2022-10-31T19:54:19.264Z,13.26
2022-10-31T19:56:47.617Z,13.04
2022-10-31T19:59:15.649Z,13.48
2022-10-31T20:01:43.726Z,13.31
2022-10-31T20:04:12.244Z,13.16
2022-10-31T20:06:41.554Z,13.58
2022-10-31T20:09:14.272Z,13.30
2022-10-31T20:11:44.678Z,13.22
2022-10-31T20:14:14.758Z,13.47
2022-10-31T20:16:44.826Z,13.51
2022-10-31T20:19:14.112Z,13.27
2022-10-31T20:21:46.598Z,13.22
2022-10-31T20:24:14.598Z,13.41
2022-10-31T20:26:42.989Z,13.32
2022-10-31T20:29:18.550Z,13.05
2022-10-31T20:31:48.718Z,13.64
2022-10-31T20:34:16.683Z,13.13
2022-10-31T20:36:44.676Z,13.13
2022-10-31T20:39:13.212Z,13.44
2022-10-31T20:41:41.647Z,13.14
2022-10-31T20:44:09.638Z,13.13
2022-10-31T20:46:37.870Z,12.86
2022-10-31T20:49:05.906Z,13.09
2022-10-31T20:51:33.843Z,13.04
2022-10-31T20:54:02.080Z,13.35
2022-10-31T20:56:30.169Z,12.93
2022-10-31T20:58:58.300Z,12.93
2022-10-31T21:01:31.283Z,12.75
2022-10-31T21:03:59.771Z,13.11
2022-10-31T21:06:28.515Z,13.04
2022-10-31T21:08:57.255Z,13.16
2022-10-31T21:11:26.937Z,13.00
2022-10-31T21:13:55.470Z,13.06
2022-10-31T21:16:25.690Z,12.69
2022-10-31T21:18:54.238Z,13.63
2022-10-31T21:21:33.299Z,13.04
2022-10-31T21:24:03.590Z,13.09
2022-10-31T21:26:35.019Z,13.02
2022-10-31T21:29:03.710Z,13.02
2022-10-31T21:31:32.330Z,13.31
2022-10-31T21:34:00.179Z,13.09
2022-10-31T21:36:28.199Z,12.98
2022-10-31T21:38:56.628Z,13.20
2022-10-31T21:41:25.979Z,13.09
2022-10-31T21:43:54.846Z,13.24
2022-10-31T21:46:32.888Z,13.18
2022-10-31T21:49:02.825Z,13.28
2022-10-31T21:51:33.460Z,12.89
2022-10-31T21:54:19.851Z,13.03
2022-10-31T21:56:48.167Z,13.01
2022-10-31T21:59:16.184Z,12.82
2022-10-31T22:01:44.315Z,12.85
2022-10-31T22:04:12.710Z,13.21
2022-10-31T22:06:40.608Z,13.41
2022-10-31T22:09:10.660Z,13.07
2022-10-31T22:11:39.797Z,13.08
2022-10-31T22:14:07.980Z,13.54
2022-10-31T22:16:36.919Z,13.23
2022-10-31T22:19:06.647Z,13.06
2022-10-31T22:21:46.825Z,12.61
2022-10-31T22:24:16.568Z,12.74
2022-10-31T22:26:44.610Z,13.07
2022-10-31T22:29:15.410Z,13.24
2022-10-31T22:31:48.537Z,13.49
2022-10-31T22:34:19.297Z,13.17
2022-10-31T22:36:47.709Z,13.33
2022-10-31T22:39:15.666Z,12.85
2022-10-31T22:41:43.657Z,13.36
2022-10-31T22:44:11.881Z,13.10
2022-10-31T22:46:40.496Z,13.05
2022-10-31T22:49:14.150Z,12.90
2022-10-31T22:51:43.694Z,12.86
2022-10-31T22:54:16.730Z,12.74
2022-10-31T22:56:45.661Z,13.22
2022-10-31T22:59:15.068Z,12.99
2022-10-31T23:01:45.953Z,13.77
2022-10-31T23:04:15.896Z,13.63
2022-10-31T23:06:44.688Z,13.06
2022-10-31T23:09:15.017Z,13.95
2022-10-31T23:11:43.718Z,13.28
2022-10-31T23:14:16.597Z,13.35
2022-10-31T23:16:51.937Z,13.97
2022-10-31T23:19:22.885Z,13.20
2022-10-31T23:21:57.480Z,13.27
2022-10-31T23:24:38.090Z,13.12
2022-10-31T23:27:10.947Z,13.90
2022-10-31T23:29:51.149Z,13.21
2022-10-31T23:32:22.152Z,13.80
2022-10-31T23:34:52.317Z,13.48
2022-10-31T23:37:22.669Z,12.80
2022-10-31T23:39:50.844Z,12.84
2022-10-31T23:42:19.336Z,13.21
2022-10-31T23:44:47.638Z,12.81
2022-10-31T23:47:15.975Z,13.20
2022-10-31T23:49:44.179Z,12.78
2022-10-31T23:52:13.151Z,12.90
2022-10-31T23:54:41.053Z,12.94
2022-10-31T23:57:10.098Z,12.84
2022-10-31T23:59:40.389Z,13.18
